Airfield :
LOGIN :

Register | Disclaimer

   EN    FR    IT 

 










Legend :    VFR   Marginal VFR   IFR   Intensive IFR   Very Intensive IFR
Visi :
Ceiling :
>= 8 km
>= 3000ft
5 to 8 km
1000 to 3000 ft
1500m to 5 km
500 to 1000 ft
800 to 1500m
200 to 500 ft
< 800m
< 200 ft
Symbols :   Thunderstorms  Fog  Heavy snow  Heavy precipitations  Wind > 20 kt
SIGMETs :     Misc.  Thunderstorms  Icing  Turbulence  Mountain Waves  Volcanic Ashes






- Airport Elevation : 502 ft
- IATA code : ORK


EICK - Cork

CURRENT METAR :
  • 071000Z 33013KT 9999 SCT020 BKN025 12/06 Q1014 NOSIG

EXPIRED METARs :
  • 070930Z 34015KT 9999 FEW016 BKN020 11/06 Q1013 NOSIG
  • 070900Z 35015KT 9999 BKN018 BKN025 11/06 Q1013 NOSIG
  • 070830Z 34019KT 9999 SCT017 BKN022 11/06 Q1013 NOSIG
  • 070800Z 33015KT 9999 FEW014 BKN018 10/06 Q1013 NOSIG
  • 070730Z 33014KT 9999 FEW014 BKN018 10/06 Q1012 NOSIG

TAF TAF EICK
Valid from the 07 at 06:00 until the 08 at 06:00 UTC


070500Z 0706/0806 35012KT 9999 SCT015 BKN025
PROB30
TEMPO 0706/0708 BKN012



MET'MAP, your aeronautical weather chart ! - Copyright ORBIFLY December 2007 - Disclaimer

ORBIFLY MET'MAP TEAM :

Programming & Development : Alexandra Zaïnal
Concept & original design : Baudouin d'Aumeries
Assistance for programming : Marc-Olivier Méhu
Technical & hardware support : Manuel Goepfert

Contact : metmap@orbifly.com




SOURCES & CREDITS :

   NOAA